CA-0442 weather

Little's Farm
Ontario, Canada

Public forecast

Using degrees Celsius for public forecast. Weather courtesy of forecast.io.

Closest aviation weather report (METAR) to Little's Farm

Closest report is Lester B. Pearson International Airport, 10.0 nm (18.5 km) SE. Retrieved 2020/01/23 19:00 UTC (31 minutes ago):

CYYZ 231900Z 16008KT 090V160 12SM OVC120 02/M05 A3023 RMK AS8 SLP245

Closest aviation forecast (TAF) to Little's Farm

Closest forecast is Lester B. Pearson International Airport, 10.0 nm (18.5 km) SE. Retrieved 2020/01/23 21:42 UTC (0 seconds ago):

TAF TAF CYYZ 232038Z 2321/2424 14008KT P6SM OVC120 BECMG 2322/2324 08006KT FM240000 05006KT P6SM OVC100 FM241000 06010KT P6SM SCT060 OVC080 FM241300 06012KT P6SM BKN040 OVC080 FM242200 07010G20KT P6SM OVC030 TEMPO 2422/2424 P6SM -RA PROB30 2422/2424 P6SM -FZRA RMK NXT FCST BY 240000Z